createdAt,value
2019-03-21T00:01:00.023Z,0.00
2019-03-21T00:02:00.208Z,0.00
2019-03-21T00:03:00.387Z,0.00
2019-03-21T00:04:00.578Z,0.00
2019-03-21T00:05:00.754Z,0.00
2019-03-21T00:06:01.002Z,0.00
2019-03-21T00:07:01.125Z,0.00
2019-03-21T00:08:01.303Z,0.00
2019-03-21T00:09:01.504Z,0.00
2019-03-21T00:10:01.670Z,0.00
2019-03-21T00:11:01.846Z,0.00
2019-03-21T00:12:02.030Z,0.00
2019-03-21T00:13:02.212Z,0.00
2019-03-21T00:14:06.898Z,0.00
2019-03-21T00:15:02.584Z,0.00
2019-03-21T00:16:02.765Z,0.00
2019-03-21T00:17:02.957Z,0.00
2019-03-21T00:18:03.136Z,0.00
2019-03-21T00:19:03.319Z,0.00
2019-03-21T00:20:03.498Z,0.00
2019-03-21T00:21:03.680Z,0.00
2019-03-21T00:22:03.862Z,0.00
2019-03-21T00:23:04.043Z,0.00
2019-03-21T00:24:04.231Z,0.00
2019-03-21T00:25:04.400Z,0.00
2019-03-21T00:26:04.588Z,0.00
2019-03-21T00:27:04.769Z,0.00
2019-03-21T00:28:04.958Z,0.00
2019-03-21T00:29:05.131Z,0.00
2019-03-21T00:30:05.305Z,0.00
2019-03-21T00:31:05.492Z,0.00
2019-03-21T00:32:05.676Z,0.00
2019-03-21T00:33:05.859Z,0.00
2019-03-21T00:34:06.042Z,0.00
2019-03-21T00:35:06.222Z,0.00
2019-03-21T00:36:06.402Z,0.00
2019-03-21T00:37:06.583Z,0.00
2019-03-21T00:38:06.779Z,0.00
2019-03-21T00:39:06.963Z,0.00
2019-03-21T00:40:07.145Z,0.00
2019-03-21T00:41:07.327Z,0.00
2019-03-21T00:42:07.507Z,0.00
2019-03-21T00:43:07.682Z,0.00
2019-03-21T00:44:17.820Z,0.00
2019-03-21T00:45:08.041Z,0.00
2019-03-21T00:46:08.226Z,0.00
2019-03-21T00:47:08.407Z,0.00
2019-03-21T00:48:08.578Z,0.00
2019-03-21T00:49:08.779Z,0.00
2019-03-21T00:50:08.961Z,0.00
2019-03-21T00:51:09.143Z,0.00
2019-03-21T00:52:09.326Z,0.00
2019-03-21T00:53:09.507Z,0.00
2019-03-21T00:54:09.685Z,0.00
2019-03-21T00:55:09.870Z,0.00
2019-03-21T00:56:10.054Z,0.00
2019-03-21T00:57:10.240Z,0.00
2019-03-21T00:58:10.415Z,0.00
2019-03-21T00:59:10.600Z,0.00
2019-03-21T01:00:10.776Z,0.00
2019-03-21T01:01:10.957Z,0.00
2019-03-21T01:02:11.145Z,0.00
2019-03-21T01:03:11.327Z,0.00
2019-03-21T01:04:11.505Z,0.00
2019-03-21T01:05:11.691Z,0.00
2019-03-21T01:06:11.864Z,0.00
2019-03-21T01:07:12.107Z,0.00
2019-03-21T01:08:12.233Z,0.00
2019-03-21T01:09:12.410Z,0.00
2019-03-21T01:10:12.593Z,0.00
2019-03-21T01:11:12.820Z,0.00
2019-03-21T01:12:12.982Z,0.00
2019-03-21T01:13:13.171Z,0.00
2019-03-21T01:14:13.348Z,0.00
2019-03-21T01:15:13.536Z,0.00
2019-03-21T01:16:13.714Z,0.00
2019-03-21T01:17:13.904Z,0.00
2019-03-21T01:18:14.137Z,0.00
2019-03-21T01:19:14.269Z,0.00
2019-03-21T01:20:14.454Z,0.00
2019-03-21T01:21:14.628Z,0.00
2019-03-21T01:22:14.812Z,0.00
2019-03-21T01:23:14.993Z,0.00
2019-03-21T01:24:15.171Z,0.00
2019-03-21T01:25:15.354Z,0.00
2019-03-21T01:26:15.530Z,0.00
2019-03-21T01:27:15.711Z,0.00
2019-03-21T01:28:15.932Z,0.00
2019-03-21T01:29:16.070Z,0.00
2019-03-21T01:30:16.251Z,0.00
2019-03-21T01:31:16.438Z,0.00
2019-03-21T01:32:16.614Z,0.00
2019-03-21T01:33:16.791Z,0.00
2019-03-21T01:34:16.976Z,0.00
2019-03-21T01:35:17.161Z,0.00
2019-03-21T01:36:17.340Z,0.00
2019-03-21T01:37:17.530Z,0.00
2019-03-21T01:38:17.715Z,0.00
2019-03-21T01:39:17.901Z,0.00
2019-03-21T01:40:18.077Z,0.00
2019-03-21T01:41:18.266Z,0.00
2019-03-21T01:42:18.449Z,0.00
2019-03-21T01:43:18.632Z,0.00
2019-03-21T01:44:18.813Z,0.00
2019-03-21T01:45:18.992Z,0.00
2019-03-21T01:46:19.171Z,0.00
2019-03-21T01:47:19.362Z,0.00
2019-03-21T01:48:19.539Z,0.00
2019-03-21T01:49:19.717Z,0.00
2019-03-21T01:50:19.890Z,0.00
2019-03-21T01:51:20.069Z,0.00
2019-03-21T01:52:20.249Z,0.00
2019-03-21T01:53:20.434Z,0.00
2019-03-21T01:54:20.609Z,0.00
2019-03-21T01:55:20.794Z,0.00
2019-03-21T01:56:20.968Z,0.00
2019-03-21T01:57:21.145Z,0.00
2019-03-21T01:58:21.327Z,0.00
2019-03-21T01:59:21.509Z,0.00
2019-03-21T02:00:21.691Z,0.00
2019-03-21T02:01:21.876Z,0.00
2019-03-21T02:02:22.051Z,0.00
2019-03-21T02:03:22.233Z,0.00
2019-03-21T02:04:22.423Z,0.00
2019-03-21T02:05:22.599Z,0.00
2019-03-21T02:06:22.776Z,0.00
2019-03-21T02:07:22.966Z,0.00
2019-03-21T02:08:23.141Z,0.00
2019-03-21T02:09:23.324Z,0.00
2019-03-21T02:10:23.504Z,0.00
2019-03-21T02:11:23.690Z,0.00
2019-03-21T02:12:23.869Z,0.00
2019-03-21T02:13:24.052Z,0.00
2019-03-21T02:14:24.231Z,0.00
2019-03-21T02:15:25.045Z,0.00
2019-03-21T02:16:24.594Z,0.00
2019-03-21T02:17:24.774Z,0.00
2019-03-21T02:18:24.954Z,0.00
2019-03-21T02:19:25.134Z,0.00
2019-03-21T02:20:25.314Z,0.00
2019-03-21T02:21:25.495Z,0.00
2019-03-21T02:22:25.672Z,0.00
2019-03-21T02:23:25.853Z,0.00
2019-03-21T02:24:26.030Z,0.00
2019-03-21T02:25:26.215Z,0.00
2019-03-21T02:26:26.391Z,0.00
2019-03-21T02:27:26.576Z,0.00
2019-03-21T02:28:26.759Z,0.00
2019-03-21T02:29:26.939Z,0.00
2019-03-21T02:30:27.125Z,0.00
2019-03-21T02:31:27.304Z,0.00
2019-03-21T02:32:27.506Z,0.00
2019-03-21T02:33:27.684Z,0.00
2019-03-21T02:34:27.854Z,0.00
2019-03-21T02:35:30.955Z,0.00
2019-03-21T02:36:28.223Z,0.00
2019-03-21T02:37:28.397Z,0.00
2019-03-21T02:38:28.586Z,0.00
2019-03-21T02:39:28.761Z,0.00
2019-03-21T02:40:28.938Z,0.00
2019-03-21T02:41:29.122Z,0.00
2019-03-21T02:42:29.298Z,0.00
2019-03-21T02:43:29.480Z,0.00
2019-03-21T02:44:29.660Z,0.00
2019-03-21T02:45:29.841Z,0.00
2019-03-21T02:46:30.020Z,0.00
2019-03-21T02:47:30.197Z,0.00
2019-03-21T02:48:30.375Z,0.00
2019-03-21T02:49:30.552Z,0.00
2019-03-21T02:50:30.731Z,0.00
2019-03-21T02:51:30.916Z,0.00
2019-03-21T02:52:31.092Z,0.00
2019-03-21T02:53:31.292Z,0.00
2019-03-21T02:54:31.466Z,0.00
2019-03-21T02:55:31.648Z,0.00
2019-03-21T02:56:31.826Z,0.00
2019-03-21T02:57:32.007Z,0.00
2019-03-21T02:58:32.194Z,0.00
2019-03-21T02:59:32.370Z,0.00
2019-03-21T03:00:32.548Z,0.00
2019-03-21T03:01:32.730Z,0.00
2019-03-21T03:02:32.912Z,0.00
2019-03-21T03:03:33.098Z,0.00
2019-03-21T03:04:33.268Z,0.00
2019-03-21T03:05:33.452Z,0.00
2019-03-21T03:06:33.629Z,0.00
2019-03-21T03:07:33.816Z,0.00
2019-03-21T03:08:33.989Z,0.00
2019-03-21T03:09:34.166Z,0.00
2019-03-21T03:10:34.352Z,0.00
2019-03-21T03:11:34.537Z,0.00
2019-03-21T03:12:34.715Z,0.00
2019-03-21T03:13:34.907Z,0.00
2019-03-21T03:14:35.098Z,0.00
2019-03-21T03:15:35.271Z,0.00
2019-03-21T03:16:35.454Z,0.00
2019-03-21T03:17:35.632Z,0.00
2019-03-21T03:18:35.815Z,0.00
2019-03-21T03:19:36.001Z,0.00
2019-03-21T03:20:36.185Z,0.00
2019-03-21T03:21:36.360Z,0.00
2019-03-21T03:22:36.551Z,0.00
2019-03-21T03:23:36.718Z,0.00
2019-03-21T03:24:36.918Z,0.00
2019-03-21T03:25:37.084Z,0.00
2019-03-21T03:26:37.268Z,0.00
2019-03-21T03:27:37.448Z,0.00
2019-03-21T03:28:37.637Z,0.00
2019-03-21T03:29:37.813Z,0.00
2019-03-21T03:30:37.984Z,0.00
2019-03-21T03:31:38.182Z,0.00
2019-03-21T03:32:38.364Z,0.00
2019-03-21T03:33:38.540Z,0.00
2019-03-21T03:34:38.734Z,0.00
2019-03-21T03:35:38.904Z,0.00
2019-03-21T03:36:39.090Z,0.00
2019-03-21T03:37:39.256Z,0.00
2019-03-21T03:38:39.427Z,0.00
2019-03-21T03:39:39.611Z,0.00
2019-03-21T03:40:39.793Z,0.00
2019-03-21T03:44:22.828Z,0.00
2019-03-21T03:45:36.283Z,0.00
2019-03-21T03:46:23.180Z,0.00
2019-03-21T03:47:23.368Z,0.00
2019-03-21T03:48:23.537Z,0.00
2019-03-21T03:49:23.729Z,0.00
2019-03-21T03:50:23.907Z,0.00
2019-03-21T03:51:24.086Z,0.00
2019-03-21T03:52:24.275Z,0.00
2019-03-21T03:53:24.444Z,0.00
2019-03-21T03:54:24.625Z,0.00
2019-03-21T03:55:24.806Z,0.00
2019-03-21T03:56:24.978Z,0.00
2019-03-21T03:57:25.156Z,0.00
2019-03-21T03:58:25.337Z,0.00
2019-03-21T03:59:25.513Z,0.00
2019-03-21T04:00:25.902Z,0.00
2019-03-21T04:01:25.931Z,0.00
2019-03-21T04:02:26.016Z,0.00
2019-03-21T04:03:26.231Z,0.00
2019-03-21T04:04:26.408Z,0.00
2019-03-21T04:05:26.582Z,0.00
2019-03-21T04:06:26.769Z,0.00
2019-03-21T04:07:26.953Z,0.00
2019-03-21T04:08:27.136Z,0.00
2019-03-21T04:09:27.305Z,0.00
2019-03-21T04:10:27.494Z,0.00
2019-03-21T04:11:27.664Z,0.00
2019-03-21T04:12:27.845Z,0.00
2019-03-21T04:13:28.024Z,0.00
2019-03-21T04:14:28.268Z,0.00
2019-03-21T04:15:28.423Z,0.00
2019-03-21T04:16:28.604Z,0.00
2019-03-21T04:17:28.770Z,0.00
2019-03-21T04:18:28.953Z,0.00
2019-03-21T04:19:29.143Z,0.00
2019-03-21T04:20:29.324Z,0.00
2019-03-21T04:21:29.549Z,0.00
2019-03-21T04:22:29.668Z,0.00
2019-03-21T04:23:29.863Z,0.00
2019-03-21T04:24:30.025Z,0.00
2019-03-21T04:25:30.206Z,0.00
2019-03-21T04:26:30.386Z,0.00
2019-03-21T04:27:30.572Z,0.00
2019-03-21T04:28:30.761Z,0.00
2019-03-21T04:29:30.927Z,0.00
2019-03-21T04:30:31.109Z,0.00
2019-03-21T04:31:31.283Z,0.00
2019-03-21T04:32:31.465Z,0.00
2019-03-21T04:33:31.657Z,0.00
2019-03-21T04:34:31.822Z,0.00
2019-03-21T04:35:32.002Z,0.00
2019-03-21T04:36:32.189Z,0.00
2019-03-21T04:37:32.361Z,0.00
2019-03-21T04:38:32.540Z,0.00
2019-03-21T04:39:32.717Z,0.00
2019-03-21T04:40:32.902Z,0.00
2019-03-21T04:41:33.079Z,0.00
2019-03-21T04:42:33.267Z,0.00
2019-03-21T04:43:33.445Z,0.00
2019-03-21T04:44:33.626Z,0.00
2019-03-21T04:45:33.800Z,0.00
2019-03-21T04:46:33.977Z,0.00
2019-03-21T04:47:34.151Z,4.00
2019-03-21T04:48:34.340Z,4.00
2019-03-21T04:49:34.510Z,0.00
2019-03-21T04:50:34.693Z,4.00
2019-03-21T04:51:34.870Z,4.00
2019-03-21T04:52:35.051Z,4.00
2019-03-21T04:53:35.227Z,8.00
2019-03-21T04:54:35.410Z,4.00
2019-03-21T04:55:35.591Z,8.00
2019-03-21T04:56:35.763Z,12.00
2019-03-21T04:57:35.943Z,12.00
2019-03-21T04:58:36.116Z,12.00
2019-03-21T04:59:36.295Z,20.00
2019-03-21T05:00:36.480Z,20.00
2019-03-21T05:01:36.657Z,24.00
2019-03-21T05:02:36.839Z,32.00
2019-03-21T05:03:37.016Z,36.00
2019-03-21T05:04:37.193Z,44.00
2019-03-21T05:05:37.371Z,52.00
2019-03-21T05:06:37.548Z,64.00
2019-03-21T05:07:37.738Z,76.00
2019-03-21T05:08:37.921Z,88.00
2019-03-21T05:09:38.092Z,104.00
2019-03-21T05:10:38.274Z,124.00
2019-03-21T05:11:38.451Z,140.00
2019-03-21T05:12:38.632Z,168.00
2019-03-21T05:13:38.814Z,196.00
2019-03-21T05:14:38.996Z,232.00
2019-03-21T05:15:39.183Z,268.00
2019-03-21T05:16:39.356Z,316.00
2019-03-21T05:17:39.538Z,364.00
2019-03-21T05:18:39.716Z,412.00
2019-03-21T05:19:39.898Z,464.00
2019-03-21T05:20:40.080Z,512.00
2019-03-21T05:21:40.262Z,568.00
2019-03-21T05:22:40.437Z,620.00
2019-03-21T05:23:40.627Z,676.00
2019-03-21T05:24:40.799Z,736.00
2019-03-21T05:25:40.977Z,804.00
2019-03-21T05:26:41.170Z,884.00
2019-03-21T05:27:41.331Z,968.00
2019-03-21T05:28:41.512Z,1060.00
2019-03-21T05:29:41.699Z,1160.00
2019-03-21T05:30:41.876Z,1264.00
2019-03-21T05:31:42.056Z,1376.00
2019-03-21T05:32:42.237Z,1488.00
2019-03-21T05:33:42.416Z,1612.00
2019-03-21T05:34:42.597Z,1732.00
2019-03-21T05:35:42.777Z,1860.00
2019-03-21T05:36:42.987Z,1996.00
2019-03-21T05:37:43.154Z,2144.00
2019-03-21T05:38:43.337Z,2284.00
2019-03-21T05:39:43.516Z,2444.00
2019-03-21T05:40:43.693Z,2612.00
2019-03-21T05:41:43.874Z,2788.00
2019-03-21T05:42:44.058Z,2980.00
2019-03-21T05:43:44.243Z,3204.00
2019-03-21T05:44:44.428Z,3288.00
2019-03-21T05:45:44.607Z,3408.00
2019-03-21T05:46:44.789Z,3548.00
2019-03-21T05:47:44.964Z,3716.00
2019-03-21T05:48:45.140Z,3884.00
2019-03-21T05:49:45.325Z,4132.00
2019-03-21T05:50:45.552Z,4368.00
2019-03-21T05:51:45.745Z,4740.00
2019-03-21T05:52:45.923Z,5016.00
2019-03-21T05:53:46.105Z,5268.00
2019-03-21T05:54:46.289Z,5656.00
2019-03-21T05:55:46.474Z,6240.00
2019-03-21T05:56:46.665Z,6812.00
2019-03-21T05:57:46.844Z,7172.00
2019-03-21T05:58:47.024Z,8244.00
2019-03-21T05:59:47.206Z,9812.00
2019-03-21T06:00:47.392Z,10380.00
2019-03-21T06:01:47.574Z,11908.00
2019-03-21T06:02:47.778Z,12028.00
2019-03-21T06:03:47.957Z,12508.00
2019-03-21T06:04:48.150Z,12760.00
2019-03-21T06:05:48.330Z,13036.00
2019-03-21T06:06:48.510Z,13024.00
2019-03-21T06:07:48.688Z,15072.00
2019-03-21T06:08:48.868Z,17888.00
2019-03-21T06:09:49.055Z,21024.00
2019-03-21T06:10:49.236Z,25120.00
2019-03-21T06:11:49.419Z,30016.00
2019-03-21T06:12:49.599Z,32128.00
2019-03-21T06:13:49.782Z,31040.00
2019-03-21T06:14:49.965Z,29408.00
2019-03-21T06:15:50.154Z,32128.00
2019-03-21T06:16:50.331Z,35680.00
2019-03-21T06:17:50.511Z,35392.00
2019-03-21T06:18:50.696Z,34432.00
2019-03-21T06:19:50.880Z,31648.00
2019-03-21T06:20:51.066Z,30592.00
2019-03-21T06:21:51.249Z,33504.00
2019-03-21T06:22:51.434Z,37344.00
2019-03-21T06:23:51.621Z,42976.00
2019-03-21T06:24:51.810Z,47840.00
2019-03-21T06:25:51.991Z,48864.00
2019-03-21T06:26:52.179Z,47552.00
2019-03-21T06:27:52.361Z,43712.00
2019-03-21T06:28:52.556Z,38944.00
2019-03-21T06:29:52.738Z,37376.00
2019-03-21T06:30:52.923Z,38944.00
2019-03-21T06:31:53.116Z,42336.00
2019-03-21T06:32:53.297Z,46528.00
2019-03-21T06:33:53.483Z,51872.00
2019-03-21T06:34:53.670Z,53824.00
2019-03-21T06:35:53.855Z,53344.00
2019-03-21T06:36:54.046Z,51136.00
2019-03-21T06:37:54.232Z,48256.00
2019-03-21T06:38:54.422Z,48672.00
2019-03-21T06:39:54.626Z,51424.00
2019-03-21T06:40:54.803Z,52576.00
2019-03-21T06:41:55.001Z,55648.00
2019-03-21T06:42:55.192Z,55424.00
2019-03-21T06:43:55.367Z,51168.00
2019-03-21T06:44:55.558Z,46912.00
2019-03-21T06:45:55.743Z,48736.00
2019-03-21T06:46:55.935Z,48256.00
2019-03-21T06:47:56.122Z,47456.00
2019-03-21T06:48:56.315Z,49952.00
2019-03-21T06:49:56.501Z,54112.00
2019-03-21T06:50:56.693Z,60448.00
2019-03-21T06:51:56.885Z,66848.00
2019-03-21T06:52:57.075Z,68192.00
2019-03-21T06:53:57.261Z,65184.00
2019-03-21T06:54:59.744Z,60768.00
2019-03-21T06:55:57.636Z,56768.00
2019-03-21T06:56:57.825Z,56416.00
2019-03-21T06:57:58.019Z,60128.00
2019-03-21T06:58:58.211Z,62752.00
2019-03-21T06:59:58.396Z,55776.00
2019-03-21T07:00:58.583Z,54656.00
2019-03-21T07:01:58.777Z,61984.00
2019-03-21T07:02:58.969Z,44736.00
2019-03-21T07:04:07.178Z,44288.00
2019-03-21T07:04:59.336Z,46944.00
2019-03-21T07:05:59.536Z,41728.00
2019-03-21T07:07:08.109Z,40544.00
2019-03-21T07:07:59.926Z,44832.00
2019-03-21T07:09:00.109Z,53056.00
2019-03-21T07:10:00.371Z,61440.00
2019-03-21T07:11:00.562Z,68864.00
2019-03-21T07:12:00.681Z,72160.00
2019-03-21T07:13:00.879Z,72032.00
2019-03-21T07:14:01.073Z,70144.00
2019-03-21T07:15:01.265Z,67392.00
2019-03-21T07:16:01.450Z,65472.00
2019-03-21T07:17:01.642Z,65792.00
2019-03-21T07:18:01.838Z,68416.00
2019-03-21T07:19:02.033Z,71264.00
2019-03-21T07:20:02.240Z,73824.00
2019-03-21T07:21:02.414Z,75456.00
2019-03-21T07:22:02.616Z,74496.00
2019-03-21T07:23:02.817Z,73728.00
2019-03-21T07:24:02.999Z,72672.00
2019-03-21T07:25:03.214Z,71936.00
2019-03-21T07:26:03.408Z,67456.00
2019-03-21T07:27:03.600Z,67648.00
2019-03-21T07:28:03.782Z,67328.00
2019-03-21T07:29:03.983Z,66496.00
2019-03-21T07:30:04.185Z,68096.00
2019-03-21T07:31:04.367Z,69504.00
2019-03-21T07:32:04.555Z,72896.00
2019-03-21T07:33:04.751Z,77152.00
2019-03-21T07:34:04.954Z,79008.00
2019-03-21T07:35:05.143Z,79904.00
2019-03-21T07:36:05.341Z,80064.00
2019-03-21T07:37:05.536Z,71424.00
2019-03-21T07:38:05.734Z,70976.00
2019-03-21T07:39:05.928Z,72896.00
2019-03-21T07:40:06.116Z,74496.00
2019-03-21T07:41:06.317Z,78848.00
2019-03-21T07:42:06.515Z,85984.00
2019-03-21T07:43:06.699Z,86016.00
2019-03-21T07:44:06.896Z,83744.00
2019-03-21T07:45:07.085Z,81312.00
2019-03-21T07:46:07.274Z,80736.00
2019-03-21T07:47:12.638Z,81696.00
2019-03-21T07:48:07.662Z,82880.00
2019-03-21T07:49:07.856Z,81504.00
2019-03-21T07:50:08.048Z,79232.00
2019-03-21T07:51:08.244Z,78144.00
2019-03-21T07:52:08.442Z,78752.00
2019-03-21T07:53:08.641Z,79424.00
2019-03-21T07:54:08.849Z,80736.00
2019-03-21T07:55:09.033Z,84640.00
2019-03-21T07:56:09.229Z,89824.00
2019-03-21T07:57:09.425Z,95040.00
2019-03-21T07:58:09.622Z,98400.00
2019-03-21T07:59:09.816Z,99584.00
2019-03-21T08:00:10.014Z,98656.00
2019-03-21T08:01:10.206Z,97472.00
2019-03-21T08:02:10.406Z,98112.00
2019-03-21T08:03:10.592Z,98976.00
2019-03-21T08:04:10.798Z,96288.00
2019-03-21T08:05:10.997Z,93888.00
2019-03-21T08:06:11.196Z,87584.00
2019-03-21T08:07:11.395Z,83136.00
2019-03-21T08:08:11.589Z,81376.00
2019-03-21T08:09:11.790Z,81952.00
2019-03-21T08:10:11.987Z,85280.00
2019-03-21T08:11:12.183Z,89024.00
2019-03-21T08:12:12.382Z,93024.00
2019-03-21T08:13:12.577Z,96864.00
2019-03-21T08:14:12.770Z,101568.00
2019-03-21T08:15:12.959Z,103008.00
2019-03-21T08:16:13.156Z,101728.00
2019-03-21T08:17:13.353Z,101216.00
2019-03-21T08:18:13.552Z,100704.00
2019-03-21T08:19:13.750Z,99936.00
2019-03-21T08:20:13.950Z,95552.00
2019-03-21T08:21:14.147Z,92320.00
2019-03-21T08:22:14.347Z,93280.00
2019-03-21T08:23:14.537Z,95936.00
2019-03-21T08:24:14.727Z,95616.00
2019-03-21T08:25:14.928Z,94080.00
2019-03-21T08:26:15.124Z,93344.00
2019-03-21T08:27:15.332Z,92512.00
2019-03-21T08:28:15.524Z,91168.00
2019-03-21T08:29:15.724Z,90912.00
2019-03-21T08:30:15.921Z,87840.00
2019-03-21T08:31:16.119Z,85312.00
2019-03-21T08:32:16.317Z,87616.00
2019-03-21T08:33:16.514Z,90336.00
2019-03-21T08:34:16.724Z,92256.00
2019-03-21T08:35:16.920Z,93792.00
2019-03-21T08:36:17.126Z,97728.00
2019-03-21T08:37:17.321Z,101536.00
2019-03-21T08:38:17.508Z,102688.00
2019-03-21T08:39:17.707Z,101664.00
2019-03-21T08:40:17.907Z,100192.00
2019-03-21T08:41:18.098Z,98400.00
2019-03-21T08:42:18.300Z,95072.00
2019-03-21T08:43:18.495Z,92832.00
2019-03-21T08:44:18.843Z,93888.00
2019-03-21T08:45:18.888Z,99680.00
2019-03-21T08:46:19.083Z,104992.00
2019-03-21T08:47:19.281Z,104608.00
2019-03-21T08:48:19.479Z,101152.00
2019-03-21T08:49:19.677Z,96896.00
2019-03-21T08:50:19.871Z,93824.00
2019-03-21T08:51:20.079Z,91328.00
2019-03-21T08:52:20.270Z,91840.00
2019-03-21T08:53:20.472Z,92896.00
2019-03-21T08:54:20.674Z,94688.00
2019-03-21T08:55:20.872Z,95936.00
2019-03-21T08:56:21.069Z,96160.00
2019-03-21T08:57:21.264Z,93888.00
2019-03-21T08:58:21.459Z,92800.00
2019-03-21T08:59:21.666Z,93120.00
2019-03-21T09:00:21.871Z,94016.00
2019-03-21T09:01:22.059Z,95584.00
2019-03-21T09:02:22.259Z,97536.00
2019-03-21T09:03:22.463Z,99328.00
2019-03-21T09:04:22.657Z,101632.00
2019-03-21T09:05:22.856Z,100896.00
2019-03-21T09:06:23.059Z,99584.00
2019-03-21T09:07:23.262Z,99040.00
2019-03-21T09:08:23.456Z,98976.00
2019-03-21T09:09:23.725Z,98528.00
2019-03-21T09:10:23.861Z,95680.00
2019-03-21T09:11:24.029Z,92704.00
2019-03-21T09:12:24.229Z,88960.00
2019-03-21T09:13:24.428Z,87296.00
2019-03-21T09:14:24.625Z,86336.00
2019-03-21T09:15:24.822Z,85664.00
2019-03-21T09:16:25.017Z,86048.00
2019-03-21T09:17:25.217Z,88640.00
2019-03-21T09:18:25.419Z,91968.00
2019-03-21T09:19:25.614Z,92544.00
2019-03-21T09:20:25.820Z,94848.00
2019-03-21T09:21:26.027Z,96544.00
2019-03-21T09:22:27.479Z,99328.00
2019-03-21T09:23:26.426Z,100224.00
2019-03-21T09:24:26.624Z,101024.00
2019-03-21T09:25:26.826Z,97280.00
2019-03-21T09:26:27.022Z,96352.00
2019-03-21T09:27:27.221Z,96160.00
2019-03-21T09:28:27.428Z,97408.00
2019-03-21T09:29:27.631Z,99200.00
2019-03-21T09:30:27.829Z,100768.00
2019-03-21T09:31:28.033Z,102208.00
2019-03-21T09:32:28.229Z,103584.00
2019-03-21T09:33:28.439Z,102624.00
2019-03-21T09:34:28.644Z,98304.00
2019-03-21T09:35:28.846Z,93088.00
2019-03-21T09:36:29.044Z,88384.00
2019-03-21T09:37:29.247Z,85376.00
2019-03-21T09:38:29.452Z,83168.00
2019-03-21T09:39:29.654Z,84288.00
2019-03-21T09:40:29.867Z,87296.00
2019-03-21T09:41:30.071Z,89344.00
2019-03-21T09:42:30.276Z,92416.00
2019-03-21T09:43:30.483Z,96352.00
2019-03-21T09:44:30.693Z,98944.00
2019-03-21T09:45:30.887Z,102112.00
2019-03-21T09:46:31.089Z,104064.00
2019-03-21T09:47:31.283Z,105952.00
2019-03-21T09:48:31.488Z,103808.00
2019-03-21T09:49:31.697Z,97664.00
2019-03-21T09:50:31.896Z,90112.00
2019-03-21T09:51:32.094Z,84224.00
2019-03-21T09:52:32.292Z,82848.00
2019-03-21T09:53:32.491Z,84416.00
2019-03-21T09:54:32.696Z,86368.00
2019-03-21T09:55:32.903Z,88768.00
2019-03-21T09:56:33.116Z,90016.00
2019-03-21T09:57:33.311Z,92704.00
2019-03-21T09:58:33.515Z,93792.00
2019-03-21T09:59:33.706Z,93792.00
2019-03-21T10:02:16.634Z,90976.00
2019-03-21T10:03:16.835Z,91008.00
2019-03-21T10:04:17.034Z,89792.00
2019-03-21T10:05:17.227Z,87968.00
2019-03-21T10:06:17.427Z,86304.00
2019-03-21T10:07:17.627Z,83616.00
2019-03-21T10:08:17.836Z,83904.00
2019-03-21T10:09:18.056Z,84032.00
2019-03-21T10:10:18.258Z,83680.00
2019-03-21T10:11:18.491Z,84064.00
2019-03-21T10:12:18.690Z,84256.00
2019-03-21T10:13:18.884Z,84032.00
2019-03-21T10:14:19.088Z,84704.00
2019-03-21T10:15:19.286Z,85888.00
2019-03-21T10:16:19.502Z,87456.00
2019-03-21T10:17:19.684Z,88928.00
2019-03-21T10:18:19.895Z,88960.00
2019-03-21T10:19:20.079Z,88768.00
2019-03-21T10:20:20.275Z,87104.00
2019-03-21T10:21:20.498Z,85600.00
2019-03-21T10:22:20.700Z,85792.00
2019-03-21T10:23:20.900Z,86528.00
2019-03-21T10:24:21.099Z,86496.00
2019-03-21T10:25:21.302Z,87328.00
2019-03-21T10:26:21.502Z,87136.00
2019-03-21T10:27:21.699Z,86432.00
2019-03-21T10:28:21.901Z,85280.00
2019-03-21T10:29:22.096Z,83264.00
2019-03-21T10:30:22.311Z,81920.00
2019-03-21T10:31:22.510Z,79712.00
2019-03-21T10:32:22.706Z,80992.00
2019-03-21T10:33:22.912Z,83168.00
2019-03-21T10:34:23.112Z,86848.00
2019-03-21T10:35:23.313Z,88832.00
2019-03-21T10:36:23.511Z,88704.00
2019-03-21T10:37:23.712Z,86112.00
2019-03-21T10:38:23.898Z,83232.00
2019-03-21T10:39:24.102Z,79776.00
2019-03-21T10:40:24.308Z,76800.00
2019-03-21T10:41:24.507Z,73408.00
2019-03-21T10:42:24.713Z,70112.00
2019-03-21T10:43:24.910Z,69376.00
2019-03-21T10:44:25.110Z,70368.00
2019-03-21T10:45:25.308Z,74912.00
2019-03-21T10:46:25.508Z,79040.00
2019-03-21T10:47:25.709Z,83616.00
2019-03-21T10:48:25.912Z,86784.00
2019-03-21T10:49:26.112Z,88704.00
2019-03-21T10:50:26.315Z,85888.00
2019-03-21T10:51:26.520Z,79968.00
2019-03-21T10:52:26.724Z,74944.00
2019-03-21T10:53:26.924Z,69408.00
2019-03-21T10:54:27.143Z,65120.00
2019-03-21T10:55:27.320Z,63616.00
2019-03-21T10:56:27.518Z,64352.00
2019-03-21T10:57:27.722Z,65792.00
2019-03-21T10:58:27.919Z,68256.00
2019-03-21T10:59:28.122Z,71488.00
2019-03-21T11:00:28.323Z,72800.00
2019-03-21T11:01:28.520Z,75008.00
2019-03-21T11:02:29.021Z,75616.00
2019-03-21T11:03:28.973Z,74752.00
2019-03-21T11:04:29.168Z,72192.00
2019-03-21T11:05:29.367Z,70240.00
2019-03-21T11:06:29.568Z,68000.00
2019-03-21T11:07:29.768Z,66336.00
2019-03-21T11:08:29.967Z,67456.00
2019-03-21T11:09:30.172Z,70048.00
2019-03-21T11:10:30.368Z,72512.00
2019-03-21T11:11:30.571Z,73952.00
2019-03-21T11:12:30.767Z,74112.00
2019-03-21T11:13:30.970Z,72928.00
2019-03-21T11:14:31.172Z,70080.00
2019-03-21T11:15:31.376Z,65920.00
2019-03-21T11:16:31.674Z,62240.00
2019-03-21T11:17:31.771Z,59872.00
2019-03-21T11:18:36.370Z,59136.00
2019-03-21T11:19:32.167Z,60032.00
2019-03-21T11:20:32.368Z,62656.00
2019-03-21T11:21:32.572Z,63712.00
2019-03-21T11:22:32.774Z,64896.00
2019-03-21T11:23:32.974Z,65600.00
2019-03-21T11:24:33.182Z,65760.00
2019-03-21T11:25:33.377Z,64576.00
2019-03-21T11:26:33.583Z,63360.00
2019-03-21T11:27:33.773Z,61536.00
2019-03-21T11:28:33.989Z,60160.00
2019-03-21T11:29:34.187Z,59936.00
2019-03-21T11:30:34.385Z,60224.00
2019-03-21T11:31:34.590Z,61248.00
2019-03-21T11:32:34.822Z,61376.00
2019-03-21T11:33:34.983Z,60992.00
2019-03-21T11:34:35.192Z,60704.00
2019-03-21T11:35:35.387Z,59488.00
2019-03-21T11:36:38.542Z,57152.00
2019-03-21T11:37:35.798Z,56096.00
2019-03-21T11:38:35.995Z,55104.00
2019-03-21T11:39:36.194Z,54016.00
2019-03-21T11:40:36.401Z,54144.00
2019-03-21T11:41:36.608Z,55520.00
2019-03-21T11:42:36.814Z,57568.00
2019-03-21T11:43:36.992Z,58784.00
2019-03-21T11:44:37.189Z,58656.00
2019-03-21T11:45:37.382Z,55584.00
2019-03-21T11:46:37.581Z,52320.00
2019-03-21T11:47:42.084Z,49536.00
2019-03-21T11:48:37.984Z,48512.00
2019-03-21T11:49:38.190Z,49344.00
2019-03-21T11:50:38.391Z,50560.00
2019-03-21T11:51:38.601Z,51488.00
2019-03-21T11:52:41.014Z,52064.00
2019-03-21T11:53:38.997Z,50656.00
2019-03-21T11:54:39.193Z,49056.00
2019-03-21T11:55:39.405Z,47424.00
2019-03-21T11:56:39.615Z,46208.00
2019-03-21T11:57:39.796Z,44320.00
2019-03-21T11:58:39.981Z,42944.00
2019-03-21T11:59:51.171Z,43264.00
2019-03-21T12:00:44.368Z,44128.00
2019-03-21T12:01:40.572Z,44032.00
2019-03-21T12:02:40.773Z,43712.00
2019-03-21T12:03:40.971Z,42880.00
2019-03-21T12:04:41.170Z,41312.00
2019-03-21T12:05:41.367Z,40064.00
2019-03-21T12:06:41.557Z,39936.00
2019-03-21T12:07:41.771Z,40128.00
2019-03-21T12:08:41.959Z,40032.00
2019-03-21T12:09:42.156Z,39136.00
2019-03-21T12:10:42.352Z,37280.00
2019-03-21T12:11:42.551Z,35552.00
2019-03-21T12:12:42.748Z,33920.00
2019-03-21T12:13:42.953Z,33856.00
2019-03-21T12:14:43.147Z,36128.00
2019-03-21T12:15:43.344Z,37184.00
2019-03-21T12:16:43.552Z,37664.00
2019-03-21T12:17:43.749Z,37280.00
2019-03-21T12:18:43.948Z,36384.00
2019-03-21T12:19:44.142Z,32832.00
2019-03-21T12:20:44.340Z,24512.00
2019-03-21T12:21:44.534Z,15780.00
2019-03-21T12:22:47.257Z,13424.00
2019-03-21T12:23:44.934Z,13596.00
2019-03-21T12:24:45.124Z,13212.00
2019-03-21T12:25:45.336Z,12856.00
2019-03-21T12:26:45.530Z,13028.00
2019-03-21T12:27:45.723Z,13020.00
2019-03-21T12:28:45.923Z,12704.00